createdAt,value
2023-03-23T16:02:20.318Z,14.50
2023-03-23T16:07:26.125Z,14.40
2023-03-23T16:12:31.608Z,14.30
2023-03-23T16:17:38.716Z,14.20
2023-03-23T16:22:50.130Z,14.10
2023-03-23T16:27:57.521Z,14.10
2023-03-23T16:33:03.698Z,14.00
2023-03-23T16:38:14.230Z,14.00
2023-03-23T16:43:19.909Z,14.00
2023-03-23T16:48:26.997Z,14.00
2023-03-23T16:53:32.878Z,13.90
2023-03-23T16:58:38.281Z,13.80
2023-03-23T17:03:44.174Z,13.80
2023-03-23T17:08:49.756Z,13.80
2023-03-23T17:13:55.245Z,13.80
2023-03-23T17:19:00.608Z,13.70
2023-03-23T17:24:06.279Z,13.60
2023-03-23T17:29:11.801Z,13.50
2023-03-23T17:34:18.775Z,13.30
2023-03-23T17:39:24.576Z,13.20
2023-03-23T17:44:36.672Z,13.20
2023-03-23T17:49:42.092Z,13.10
2023-03-23T17:54:48.159Z,12.90
2023-03-23T17:59:54.062Z,12.90
2023-03-23T18:04:59.905Z,12.80
2023-03-23T18:10:07.673Z,12.70
2023-03-23T18:15:13.430Z,12.70
2023-03-23T18:20:25.064Z,12.60
2023-03-23T18:25:32.075Z,12.50
2023-03-23T18:30:37.595Z,12.50
2023-03-23T18:35:43.314Z,12.30
2023-03-23T18:40:49.487Z,12.10
2023-03-23T18:45:56.961Z,12.00
2023-03-23T18:51:03.096Z,11.80
2023-03-23T18:56:14.198Z,11.70
2023-03-23T19:01:19.815Z,11.50
2023-03-23T19:06:27.959Z,11.50
2023-03-23T19:11:33.215Z,11.40
2023-03-23T19:16:38.642Z,11.50
2023-03-23T19:21:46.993Z,11.60
2023-03-23T19:26:51.808Z,11.70
2023-03-23T19:31:58.561Z,11.80
2023-03-23T19:37:06.247Z,12.00
2023-03-23T19:42:11.280Z,11.90
2023-03-23T19:47:16.822Z,11.90
2023-03-23T19:52:22.621Z,12.00
2023-03-23T19:57:28.891Z,12.00
2023-03-23T20:02:34.453Z,12.00
2023-03-23T20:07:41.735Z,12.00
2023-03-23T20:12:46.892Z,12.00
2023-03-23T20:17:53.059Z,12.00
2023-03-23T20:23:01.817Z,11.80
2023-03-23T20:28:07.671Z,11.70
2023-03-23T20:33:14.706Z,11.70
2023-03-23T20:38:20.171Z,11.60
2023-03-23T20:43:29.764Z,11.40
2023-03-23T20:48:37.419Z,11.30
2023-03-23T20:53:43.360Z,11.20
2023-03-23T20:58:48.733Z,11.20
2023-03-23T21:03:57.128Z,11.20
2023-03-23T21:09:03.685Z,11.20
2023-03-23T21:14:09.901Z,11.20
2023-03-23T21:19:15.978Z,11.00
2023-03-23T21:24:22.341Z,10.90
2023-03-23T21:29:29.511Z,10.80
2023-03-23T21:34:37.009Z,10.60
2023-03-23T21:39:42.443Z,10.50
2023-03-23T21:44:48.780Z,10.30
2023-03-23T21:49:55.784Z,10.10
2023-03-23T21:55:02.865Z,9.90
2023-03-23T22:00:17.679Z,9.80
2023-03-23T22:05:23.513Z,9.80
2023-03-23T22:10:28.777Z,9.80
2023-03-23T22:15:33.933Z,9.70
2023-03-23T22:20:40.457Z,9.60
2023-03-23T22:25:45.788Z,9.60
2023-03-23T22:30:51.229Z,9.60
2023-03-23T22:35:56.856Z,9.50
2023-03-23T22:41:04.973Z,9.30
2023-03-23T22:46:10.804Z,9.20
2023-03-23T22:51:18.045Z,9.10
2023-03-23T22:56:24.903Z,9.10
2023-03-23T23:01:30.952Z,9.20
2023-03-23T23:06:36.624Z,9.10
2023-03-23T23:11:41.902Z,8.90
2023-03-23T23:16:48.393Z,8.80
2023-03-23T23:21:55.464Z,8.70
2023-03-23T23:27:01.006Z,8.60
2023-03-23T23:32:06.712Z,8.50
2023-03-23T23:37:12.560Z,8.40
2023-03-23T23:42:18.017Z,8.30
2023-03-23T23:47:23.406Z,8.20
2023-03-23T23:52:28.623Z,8.10
2023-03-23T23:57:34.368Z,7.90
